Terminal Aerodrome Forecast
Issued by NWS

Home | Current Version | Previous Version | Graphics & Text | Print | Product List | Glossary On
Versions: 1 2 3 4 5 6 7 8 9 10 11 12 13 14 15 16 17 18 19 20 21 22 23 24 25 26 27 28
296
FTUS43 KLOT 231949 AAA
TAFORD
TAF AMD
KORD 231949Z 2320/2424 19006KT 5SM -SHRA VCTS BKN035CB OVC050
      TEMPO 2321/2401 14005KT 3SM SHRA SCT010 OVC025
     FM240100 07006KT 6SM -SHRA SCT020 OVC050
     FM240300 05005KT 5SM -SHRA SCT010 OVC020
     FM240600 03007KT 4SM BR VCSH SCT003 OVC008
     FM241900 02012G20KT P6SM OVC020=

USA.gov is the U.S. government's official web portal to all federal, state and local government web resources and services.